sensor_id;sensor_type;location;lat;lon;timestamp;pressure;altitude;pressure_sealevel;temperature;humidity
77739;BME280;66904;59.926;30.404;2023-09-19T00:01:30;101743.00;;;24.42;44.30
77739;BME280;66904;59.926;30.404;2023-09-19T00:06:30;101752.97;;;24.42;44.26
77739;BME280;66904;59.926;30.404;2023-09-19T00:11:31;101744.84;;;24.42;44.37
77739;BME280;66904;59.926;30.404;2023-09-19T00:16:33;101736.06;;;24.40;44.51
77739;BME280;66904;59.926;30.404;2023-09-19T00:21:34;101738.75;;;24.40;44.46
77739;BME280;66904;59.926;30.404;2023-09-19T00:26:36;101743.34;;;24.39;44.26
77739;BME280;66904;59.926;30.404;2023-09-19T00:31:36;101725.22;;;24.40;44.39
77739;BME280;66904;59.926;30.404;2023-09-19T00:36:38;101729.16;;;24.37;44.57
77739;BME280;66904;59.926;30.404;2023-09-19T00:41:43;101720.03;;;24.38;44.50
77739;BME280;66904;59.926;30.404;2023-09-19T00:46:45;101720.03;;;24.38;44.40
77739;BME280;66904;59.926;30.404;2023-09-19T00:51:49;101721.03;;;24.37;44.48
77739;BME280;66904;59.926;30.404;2023-09-19T00:56:50;101723.72;;;24.37;44.34
77739;BME280;66904;59.926;30.404;2023-09-19T01:01:54;101719.34;;;24.36;44.50
77739;BME280;66904;59.926;30.404;2023-09-19T01:06:55;101700.59;;;24.35;44.11
77739;BME280;66904;59.926;30.404;2023-09-19T01:12:01;101695.19;;;24.35;44.06
77739;BME280;66904;59.926;30.404;2023-09-19T01:17:14;101676.63;;;24.32;44.19
77739;BME280;66904;59.926;30.404;2023-09-19T01:22:35;101668.78;;;24.37;43.73
77739;BME280;66904;59.926;30.404;2023-09-19T01:28:20;101655.94;;;24.39;44.01
77739;BME280;66904;59.926;30.404;2023-09-19T01:33:24;101637.53;;;24.34;44.14
77739;BME280;66904;59.926;30.404;2023-09-19T01:38:24;101628.78;;;24.32;44.09
77739;BME280;66904;59.926;30.404;2023-09-19T01:43:38;101631.28;;;24.34;43.77
77739;BME280;66904;59.926;30.404;2023-09-19T01:48:45;101620.84;;;24.31;43.71
77739;BME280;66904;59.926;30.404;2023-09-19T01:53:55;101614.56;;;24.30;43.71
77739;BME280;66904;59.926;30.404;2023-09-19T01:59:10;101599.38;;;24.29;43.89
77739;BME280;66904;59.926;30.404;2023-09-19T02:04:12;101589.75;;;24.27;43.77
77739;BME280;66904;59.926;30.404;2023-09-19T02:09:14;101582.69;;;24.26;44.03
77739;BME280;66904;59.926;30.404;2023-09-19T02:14:15;101571.88;;;24.26;43.75
77739;BME280;66904;59.926;30.404;2023-09-19T02:19:16;101559.53;;;24.23;43.77
77739;BME280;66904;59.926;30.404;2023-09-19T02:24:17;101561.06;;;24.26;43.77
77739;BME280;66904;59.926;30.404;2023-09-19T02:29:19;101546.69;;;24.25;43.80
77739;BME280;66904;59.926;30.404;2023-09-19T02:34:22;101532.47;;;24.23;43.70
77739;BME280;66904;59.926;30.404;2023-09-19T02:39:23;101523.72;;;24.21;43.76
77739;BME280;66904;59.926;30.404;2023-09-19T02:44:24;101516.09;;;24.25;43.81
77739;BME280;66904;59.926;30.404;2023-09-19T02:49:24;101515.06;;;24.26;43.71
77739;BME280;66904;59.926;30.404;2023-09-19T02:54:25;101503.41;;;24.25;43.48
77739;BME280;66904;59.926;30.404;2023-09-19T02:59:25;101481.94;;;24.24;43.76
77739;BME280;66904;59.926;30.404;2023-09-19T03:04:26;101476.53;;;24.24;43.57
77739;BME280;66904;59.926;30.404;2023-09-19T03:09:27;101470.28;;;24.23;43.59
77739;BME280;66904;59.926;30.404;2023-09-19T03:14:28;101467.59;;;24.23;43.53
77739;BME280;66904;59.926;30.404;2023-09-19T03:19:30;101456.97;;;24.22;43.53
77739;BME280;66904;59.926;30.404;2023-09-19T03:24:33;101453.41;;;24.21;43.31
77739;BME280;66904;59.926;30.404;2023-09-19T03:29:36;101459.84;;;24.20;43.54
77739;BME280;66904;59.926;30.404;2023-09-19T03:34:37;101444.66;;;24.19;43.44
77739;BME280;66904;59.926;30.404;2023-09-19T03:39:43;101424.03;;;24.18;43.54
77739;BME280;66904;59.926;30.404;2023-09-19T03:44:43;101409.69;;;24.17;43.46
77739;BME280;66904;59.926;30.404;2023-09-19T03:49:44;101398.88;;;24.17;43.41
77739;BME280;66904;59.926;30.404;2023-09-19T03:54:45;101393.47;;;24.17;43.27
77739;BME280;66904;59.926;30.404;2023-09-19T03:59:46;101375.53;;;24.16;43.33
77739;BME280;66904;59.926;30.404;2023-09-19T04:04:48;101357.66;;;24.15;43.20
77739;BME280;66904;59.926;30.404;2023-09-19T04:09:49;101356.63;;;24.16;43.45
77739;BME280;66904;59.926;30.404;2023-09-19T04:14:49;101325.22;;;24.15;43.48
77739;BME280;66904;59.926;30.404;2023-09-19T04:19:50;101319.81;;;24.15;43.49
77739;BME280;66904;59.926;30.404;2023-09-19T04:24:51;101308.41;;;24.20;44.13
77739;BME280;66904;59.926;30.404;2023-09-19T04:29:51;101308.31;;;24.28;43.96
77739;BME280;66904;59.926;30.404;2023-09-19T04:34:53;101287.78;;;24.34;44.39
77739;BME280;66904;59.926;30.404;2023-09-19T04:39:54;101287.50;;;24.43;44.53
77739;BME280;66904;59.926;30.404;2023-09-19T04:44:54;101280.13;;;24.52;44.65
77739;BME280;66904;59.926;30.404;2023-09-19T04:49:55;101259.19;;;24.60;44.86
77739;BME280;66904;59.926;30.404;2023-09-19T04:54:56;101263.38;;;24.63;44.86
77739;BME280;66904;59.926;30.404;2023-09-19T04:59:57;101262.81;;;24.67;44.70
77739;BME280;66904;59.926;30.404;2023-09-19T05:04:58;101254.69;;;24.67;44.53
77739;BME280;66904;59.926;30.404;2023-09-19T05:09:59;101254.28;;;24.70;44.70
77739;BME280;66904;59.926;30.404;2023-09-19T05:15:00;101234.31;;;24.72;44.66
77739;BME280;66904;59.926;30.404;2023-09-19T05:20:02;101241.16;;;24.67;44.44
77739;BME280;66904;59.926;30.404;2023-09-19T05:25:15;101211.56;;;24.66;44.43
77739;BME280;66904;59.926;30.404;2023-09-19T05:30:20;101218.41;;;24.62;44.46
77739;BME280;66904;59.926;30.404;2023-09-19T05:35:22;101205.06;;;24.60;44.57
77739;BME280;66904;59.926;30.404;2023-09-19T05:40:24;101199.88;;;24.59;44.63
77739;BME280;66904;59.926;30.404;2023-09-19T05:45:25;101179.44;;;24.56;44.48
77739;BME280;66904;59.926;30.404;2023-09-19T05:50:26;101175.25;;;24.54;44.29
77739;BME280;66904;59.926;30.404;2023-09-19T05:55:26;101164.81;;;24.51;44.52
77739;BME280;66904;59.926;30.404;2023-09-19T06:00:28;101162.50;;;24.48;44.24
77739;BME280;66904;59.926;30.404;2023-09-19T06:05:31;101159.97;;;24.46;44.17
77739;BME280;66904;59.926;30.404;2023-09-19T06:10:32;101153.09;;;24.44;44.21
77739;BME280;66904;59.926;30.404;2023-09-19T06:15:33;101139.09;;;24.40;44.15
77739;BME280;66904;59.926;30.404;2023-09-19T06:20:35;101125.78;;;24.39;44.26
77739;BME280;66904;59.926;30.404;2023-09-19T06:25:36;101124.13;;;24.38;44.12
77739;BME280;66904;59.926;30.404;2023-09-19T06:30:36;101117.03;;;24.37;43.94
77739;BME280;66904;59.926;30.404;2023-09-19T06:35:40;101115.38;;;24.36;44.05
77739;BME280;66904;59.926;30.404;2023-09-19T06:40:41;101089.53;;;24.33;43.89
77739;BME280;66904;59.926;30.404;2023-09-19T06:45:42;101102.88;;;24.35;43.98
77739;BME280;66904;59.926;30.404;2023-09-19T06:50:43;101094.94;;;24.33;44.18
77739;BME280;66904;59.926;30.404;2023-09-19T06:55:45;101083.94;;;24.35;43.85
77739;BME280;66904;59.926;30.404;2023-09-19T07:00:45;101076.66;;;24.35;44.07
77739;BME280;66904;59.926;30.404;2023-09-19T07:05:47;101069.56;;;24.34;43.71
77739;BME280;66904;59.926;30.404;2023-09-19T07:10:48;101048.78;;;24.35;43.96
77739;BME280;66904;59.926;30.404;2023-09-19T07:15:49;101050.47;;;24.36;44.02
77739;BME280;66904;59.926;30.404;2023-09-19T07:20:50;101035.03;;;24.36;43.69
77739;BME280;66904;59.926;30.404;2023-09-19T07:25:51;101040.44;;;24.36;43.69
77739;BME280;66904;59.926;30.404;2023-09-19T07:30:51;101040.28;;;24.38;43.79
77739;BME280;66904;59.926;30.404;2023-09-19T07:35:52;101026.56;;;24.39;43.74
77739;BME280;66904;59.926;30.404;2023-09-19T07:40:59;101036.16;;;24.42;43.80
77739;BME280;66904;59.926;30.404;2023-09-19T07:46:07;101025.34;;;24.42;44.00
77739;BME280;66904;59.926;30.404;2023-09-19T07:51:09;101005.56;;;24.41;44.10
77739;BME280;66904;59.926;30.404;2023-09-19T07:56:10;101006.63;;;24.47;43.97
77739;BME280;66904;59.926;30.404;2023-09-19T08:01:10;100987.50;;;24.48;43.99
77739;BME280;66904;59.926;30.404;2023-09-19T08:06:13;100973.31;;;24.46;44.43
77739;BME280;66904;59.926;30.404;2023-09-19T08:11:14;100965.66;;;24.50;44.26
77739;BME280;66904;59.926;30.404;2023-09-19T08:16:21;100959.22;;;24.51;44.54
77739;BME280;66904;59.926;30.404;2023-09-19T08:21:23;100960.06;;;24.51;44.65
77739;BME280;66904;59.926;30.404;2023-09-19T08:26:24;100953.19;;;24.49;44.71
77739;BME280;66904;59.926;30.404;2023-09-19T08:31:25;100959.03;;;24.52;44.56
77739;BME280;66904;59.926;30.404;2023-09-19T08:36:26;100954.66;;;24.51;44.65
77739;BME280;66904;59.926;30.404;2023-09-19T08:41:27;100938.44;;;24.51;44.80
77739;BME280;66904;59.926;30.404;2023-09-19T08:46:30;100934.03;;;24.50;44.58
77739;BME280;66904;59.926;30.404;2023-09-19T08:51:45;100924.31;;;24.56;44.78
77739;BME280;66904;59.926;30.404;2023-09-19T08:56:51;100906.59;;;24.53;44.73
77739;BME280;66904;59.926;30.404;2023-09-19T09:01:55;100899.31;;;24.54;44.87
77739;BME280;66904;59.926;30.404;2023-09-19T09:06:56;100887.25;;;24.56;45.02
77739;BME280;66904;59.926;30.404;2023-09-19T09:11:58;100875.41;;;24.57;44.93
77739;BME280;66904;59.926;30.404;2023-09-19T09:17:00;100865.41;;;24.58;44.76
77739;BME280;66904;59.926;30.404;2023-09-19T09:22:11;100850.66;;;24.60;45.12
77739;BME280;66904;59.926;30.404;2023-09-19T09:27:12;100834.63;;;24.59;45.03
77739;BME280;66904;59.926;30.404;2023-09-19T09:32:20;100831.09;;;24.58;45.06
77739;BME280;66904;59.926;30.404;2023-09-19T09:37:22;100814.63;;;24.60;45.14
77739;BME280;66904;59.926;30.404;2023-09-19T09:42:35;100800.50;;;24.64;45.34
77739;BME280;66904;59.926;30.404;2023-09-19T09:48:03;100796.38;;;24.68;45.29
77739;BME280;66904;59.926;30.404;2023-09-19T09:53:04;100794.69;;;24.67;45.52
77739;BME280;66904;59.926;30.404;2023-09-19T09:58:17;100794.09;;;24.72;45.84
77739;BME280;66904;59.926;30.404;2023-09-19T10:03:21;100781.16;;;24.67;45.88
77739;BME280;66904;59.926;30.404;2023-09-19T10:08:23;100780.16;;;24.75;45.87
77739;BME280;66904;59.926;30.404;2023-09-19T10:13:25;100773.69;;;24.76;45.87
77739;BME280;66904;59.926;30.404;2023-09-19T10:18:29;100759.13;;;24.77;46.03
77739;BME280;66904;59.926;30.404;2023-09-19T10:23:33;100747.03;;;24.80;46.01
77739;BME280;66904;59.926;30.404;2023-09-19T10:28:35;100750.59;;;24.80;45.98
77739;BME280;66904;59.926;30.404;2023-09-19T10:33:36;100735.03;;;24.82;46.33
77739;BME280;66904;59.926;30.404;2023-09-19T10:38:43;100716.84;;;24.76;46.69
77739;BME280;66904;59.926;30.404;2023-09-19T10:43:48;100710.69;;;24.82;46.56
77739;BME280;66904;59.926;30.404;2023-09-19T10:48:50;100704.19;;;24.83;46.68
77739;BME280;66904;59.926;30.404;2023-09-19T10:53:58;100704.00;;;24.85;46.72
77739;BME280;66904;59.926;30.404;2023-09-19T10:59:21;100687.53;;;24.86;47.33
77739;BME280;66904;59.926;30.404;2023-09-19T11:04:26;100681.91;;;24.81;46.85
77739;BME280;66904;59.926;30.404;2023-09-19T11:09:54;100671.53;;;24.85;47.57
77739;BME280;66904;59.926;30.404;2023-09-19T11:14:55;100669.22;;;24.82;46.90
77739;BME280;66904;59.926;30.404;2023-09-19T11:30:32;100664.44;;;24.90;47.21
77739;BME280;66904;59.926;30.404;2023-09-19T11:46:22;100645.31;;;24.92;47.37
77739;BME280;66904;59.926;30.404;2023-09-19T11:51:24;100643.44;;;24.92;47.68
77739;BME280;66904;59.926;30.404;2023-09-19T11:56:28;100634.25;;;24.93;47.47
77739;BME280;66904;59.926;30.404;2023-09-19T12:06:30;100625.53;;;24.91;47.67
77739;BME280;66904;59.926;30.404;2023-09-19T12:11:32;100619.88;;;24.93;47.74
77739;BME280;66904;59.926;30.404;2023-09-19T12:16:35;100613.66;;;24.92;48.03
77739;BME280;66904;59.926;30.404;2023-09-19T12:21:36;100604.47;;;24.93;47.66
77739;BME280;66904;59.926;30.404;2023-09-19T12:26:39;100600.94;;;24.93;47.76
77739;BME280;66904;59.926;30.404;2023-09-19T12:31:48;100596.38;;;24.93;48.38
77739;BME280;66904;59.926;30.404;2023-09-19T12:37:03;100589.91;;;24.94;48.41
77739;BME280;66904;59.926;30.404;2023-09-19T12:42:07;100592.00;;;24.92;48.20
77739;BME280;66904;59.926;30.404;2023-09-19T12:52:11;100578.25;;;24.94;48.17
77739;BME280;66904;59.926;30.404;2023-09-19T12:57:23;100574.28;;;24.96;49.03
77739;BME280;66904;59.926;30.404;2023-09-19T13:02:25;100553.69;;;24.95;48.20
77739;BME280;66904;59.926;30.404;2023-09-19T13:07:45;100546.78;;;24.99;49.08
77739;BME280;66904;59.926;30.404;2023-09-19T13:12:50;100538.25;;;24.96;48.55
77739;BME280;66904;59.926;30.404;2023-09-19T13:17:50;100536.63;;;24.95;48.44
77739;BME280;66904;59.926;30.404;2023-09-19T13:22:54;100522.25;;;24.94;48.48
77739;BME280;66904;59.926;30.404;2023-09-19T13:27:58;100512.25;;;24.95;48.29
77739;BME280;66904;59.926;30.404;2023-09-19T13:33:08;100507.88;;;24.94;49.14
77739;BME280;66904;59.926;30.404;2023-09-19T13:38:09;100501.03;;;24.91;48.87
77739;BME280;66904;59.926;30.404;2023-09-19T13:43:11;100503.50;;;24.93;48.89
77739;BME280;66904;59.926;30.404;2023-09-19T13:48:12;100484.13;;;24.96;48.70
77739;BME280;66904;59.926;30.404;2023-09-19T13:53:12;100488.31;;;24.98;49.06
77739;BME280;66904;59.926;30.404;2023-09-19T13:58:13;100482.47;;;25.01;49.08
77739;BME280;66904;59.926;30.404;2023-09-19T14:03:14;100473.06;;;25.04;49.45
77739;BME280;66904;59.926;30.404;2023-09-19T14:08:14;100472.88;;;25.05;49.25
77739;BME280;66904;59.926;30.404;2023-09-19T14:13:15;100459.34;;;25.05;49.46
77739;BME280;66904;59.926;30.404;2023-09-19T14:18:16;100449.75;;;25.03;49.89
77739;BME280;66904;59.926;30.404;2023-09-19T14:23:16;100448.31;;;25.00;49.73
77739;BME280;66904;59.926;30.404;2023-09-19T14:28:17;100445.00;;;24.98;50.02
77739;BME280;66904;59.926;30.404;2023-09-19T14:33:18;100431.66;;;24.97;50.03
77739;BME280;66904;59.926;30.404;2023-09-19T14:38:19;100432.69;;;24.96;49.79
77739;BME280;66904;59.926;30.404;2023-09-19T14:43:19;100418.34;;;24.95;49.88
77739;BME280;66904;59.926;30.404;2023-09-19T14:48:20;100407.53;;;24.95;49.99
77739;BME280;66904;59.926;30.404;2023-09-19T14:53:23;100405.03;;;24.94;50.20
77739;BME280;66904;59.926;30.404;2023-09-19T14:58:25;100397.94;;;24.93;50.32
77739;BME280;66904;59.926;30.404;2023-09-19T15:03:27;100388.78;;;24.94;50.22
77739;BME280;66904;59.926;30.404;2023-09-19T15:08:37;100389.03;;;24.92;50.24
77739;BME280;66904;59.926;30.404;2023-09-19T15:13:40;100379.84;;;24.93;50.43
77739;BME280;66904;59.926;30.404;2023-09-19T15:18:43;100380.06;;;24.92;50.42
77739;BME280;66904;59.926;30.404;2023-09-19T15:23:45;100373.81;;;24.91;50.46
77739;BME280;66904;59.926;30.404;2023-09-19T15:28:47;100376.53;;;24.91;50.54
77739;BME280;66904;59.926;30.404;2023-09-19T15:33:48;100361.13;;;24.92;50.31
77739;BME280;66904;59.926;30.404;2023-09-19T15:38:59;100354.66;;;24.93;51.12
77739;BME280;66904;59.926;30.404;2023-09-19T15:44:01;100351.34;;;24.91;50.67
77739;BME280;66904;59.926;30.404;2023-09-19T15:49:03;100336.97;;;24.90;50.42
77739;BME280;66904;59.926;30.404;2023-09-19T15:54:11;100333.44;;;24.90;51.13
77739;BME280;66904;59.926;30.404;2023-09-19T15:59:14;100328.25;;;24.88;51.07
77739;BME280;66904;59.926;30.404;2023-09-19T16:04:15;100322.59;;;24.90;51.01
77739;BME280;66904;59.926;30.404;2023-09-19T16:09:17;100315.94;;;24.92;51.05
77739;BME280;66904;59.926;30.404;2023-09-19T16:14:18;100314.44;;;24.96;51.05
77739;BME280;66904;59.926;30.404;2023-09-19T16:19:19;100314.25;;;24.98;51.19
77739;BME280;66904;59.926;30.404;2023-09-19T16:24:19;100304.44;;;24.97;51.11
77739;BME280;66904;59.926;30.404;2023-09-19T16:29:20;100306.97;;;24.98;51.67
77739;BME280;66904;59.926;30.404;2023-09-19T16:34:24;100298.59;;;25.00;51.62
77739;BME280;66904;59.926;30.404;2023-09-19T16:39:26;100293.81;;;25.02;51.67
77739;BME280;66904;59.926;30.404;2023-09-19T16:44:26;100294.81;;;25.07;52.20
77739;BME280;66904;59.926;30.404;2023-09-19T16:49:30;100290.00;;;25.09;52.65
77739;BME280;66904;59.926;30.404;2023-09-19T16:54:30;100290.63;;;25.11;52.05
77739;BME280;66904;59.926;30.404;2023-09-19T16:59:31;100285.59;;;25.15;52.62
77739;BME280;66904;59.926;30.404;2023-09-19T17:04:31;100286.00;;;25.18;52.43
77739;BME280;66904;59.926;30.404;2023-09-19T17:09:32;100288.72;;;25.18;52.43
77739;BME280;66904;59.926;30.404;2023-09-19T17:14:36;100274.94;;;25.20;53.17
77739;BME280;66904;59.926;30.404;2023-09-19T17:19:36;100264.94;;;25.20;52.22
77739;BME280;66904;59.926;30.404;2023-09-19T17:24:37;100251.59;;;25.19;52.10
77739;BME280;66904;59.926;30.404;2023-09-19T17:29:37;100246.44;;;25.17;52.71
77739;BME280;66904;59.926;30.404;2023-09-19T17:34:38;100249.13;;;25.17;52.24
77739;BME280;66904;59.926;30.404;2023-09-19T17:39:39;100253.72;;;25.17;52.34
77739;BME280;66904;59.926;30.404;2023-09-19T17:44:40;100237.91;;;25.14;52.22
77739;BME280;66904;59.926;30.404;2023-09-19T17:49:40;100234.22;;;25.08;51.89
77739;BME280;66904;59.926;30.404;2023-09-19T17:54:43;100238.56;;;25.09;52.23
77739;BME280;66904;59.926;30.404;2023-09-19T17:59:45;100229.19;;;25.12;51.94
77739;BME280;66904;59.926;30.404;2023-09-19T18:04:45;100234.38;;;25.13;51.65
77739;BME280;66904;59.926;30.404;2023-09-19T18:09:46;100225.22;;;25.14;51.77
77739;BME280;66904;59.926;30.404;2023-09-19T18:14:47;100223.34;;;25.15;51.20
77739;BME280;66904;59.926;30.404;2023-09-19T18:19:48;100223.09;;;25.16;51.41
77739;BME280;66904;59.926;30.404;2023-09-19T18:24:50;100196.88;;;25.17;51.44
77739;BME280;66904;59.926;30.404;2023-09-19T18:29:50;100196.03;;;25.16;50.95
77739;BME280;66904;59.926;30.404;2023-09-19T18:34:51;100194.16;;;25.17;51.07
77739;BME280;66904;59.926;30.404;2023-09-19T18:39:52;100178.75;;;25.17;51.43
77739;BME280;66904;59.926;30.404;2023-09-19T18:44:53;100184.75;;;25.19;51.18
77739;BME280;66904;59.926;30.404;2023-09-19T18:49:53;100170.19;;;25.20;50.78
77739;BME280;66904;59.926;30.404;2023-09-19T18:54:54;100154.97;;;25.19;50.66
77739;BME280;66904;59.926;30.404;2023-09-19T18:59:55;100152.50;;;25.18;50.29
77739;BME280;66904;59.926;30.404;2023-09-19T19:04:56;100153.34;;;25.18;50.72
77739;BME280;66904;59.926;30.404;2023-09-19T19:09:58;100123.75;;;25.17;50.48
77739;BME280;66904;59.926;30.404;2023-09-19T19:14:59;100117.38;;;25.11;50.08
77739;BME280;66904;59.926;30.404;2023-09-19T19:20:01;100106.16;;;25.08;50.25
77739;BME280;66904;59.926;30.404;2023-09-19T19:25:09;100109.53;;;25.03;50.22
77739;BME280;66904;59.926;30.404;2023-09-19T19:30:10;100103.72;;;25.00;50.53
77739;BME280;66904;59.926;30.404;2023-09-19T19:35:12;100086.50;;;24.94;50.29
77739;BME280;66904;59.926;30.404;2023-09-19T19:40:13;100084.00;;;24.93;50.06
77739;BME280;66904;59.926;30.404;2023-09-19T19:45:13;100078.22;;;24.89;50.12
77739;BME280;66904;59.926;30.404;2023-09-19T19:50:14;100077.63;;;24.87;50.43
77739;BME280;66904;59.926;30.404;2023-09-19T19:55:16;100074.91;;;24.87;50.09
77739;BME280;66904;59.926;30.404;2023-09-19T20:00:17;100083.69;;;24.83;50.18
77739;BME280;66904;59.926;30.404;2023-09-19T20:05:20;100115.69;;;24.92;49.86
77739;BME280;66904;59.926;30.404;2023-09-19T20:10:21;100125.22;;;24.95;50.27
77739;BME280;66904;59.926;30.404;2023-09-19T20:15:22;100103.34;;;24.96;50.43
77739;BME280;66904;59.926;30.404;2023-09-19T20:20:25;100120.19;;;24.98;50.15
77739;BME280;66904;59.926;30.404;2023-09-19T20:25:27;100125.81;;;24.97;50.29
77739;BME280;66904;59.926;30.404;2023-09-19T20:30:28;100115.38;;;25.00;50.73
77739;BME280;66904;59.926;30.404;2023-09-19T20:35:29;100128.72;;;25.02;50.86
77739;BME280;66904;59.926;30.404;2023-09-19T20:40:34;100134.13;;;25.02;51.04
77739;BME280;66904;59.926;30.404;2023-09-19T20:45:36;100131.19;;;25.03;50.77
77739;BME280;66904;59.926;30.404;2023-09-19T20:50:40;100124.88;;;25.09;51.00
77739;BME280;66904;59.926;30.404;2023-09-19T20:55:41;100155.47;;;25.10;51.03
77739;BME280;66904;59.926;30.404;2023-09-19T21:00:42;100173.59;;;25.09;50.90
77739;BME280;66904;59.926;30.404;2023-09-19T21:05:42;100163.00;;;25.08;51.22
77739;BME280;66904;59.926;30.404;2023-09-19T21:10:43;100176.97;;;25.05;51.42
77739;BME280;66904;59.926;30.404;2023-09-19T21:15:43;100171.78;;;25.03;52.02
77739;BME280;66904;59.926;30.404;2023-09-19T21:20:44;100162.81;;;25.03;52.25
77739;BME280;66904;59.926;30.404;2023-09-19T21:25:53;100164.28;;;25.05;53.49
77739;BME280;66904;59.926;30.404;2023-09-19T21:31:01;100145.97;;;25.01;53.12
77739;BME280;66904;59.926;30.404;2023-09-19T21:36:06;100150.56;;;25.00;53.07
77739;BME280;66904;59.926;30.404;2023-09-19T21:41:12;100168.47;;;25.01;52.79
77739;BME280;66904;59.926;30.404;2023-09-19T21:46:14;100156.22;;;24.99;53.38
77739;BME280;66904;59.926;30.404;2023-09-19T21:51:15;100164.34;;;24.99;53.06
77739;BME280;66904;59.926;30.404;2023-09-19T21:56:16;100178.06;;;24.97;53.47
77739;BME280;66904;59.926;30.404;2023-09-19T22:01:18;100182.06;;;24.95;53.23
77739;BME280;66904;59.926;30.404;2023-09-19T22:06:22;100185.59;;;24.95;53.63
77739;BME280;66904;59.926;30.404;2023-09-19T22:11:23;100185.59;;;24.95;53.41
77739;BME280;66904;59.926;30.404;2023-09-19T22:16:24;100181.22;;;24.94;53.22
77739;BME280;66904;59.926;30.404;2023-09-19T22:21:25;100178.72;;;24.93;53.57
77739;BME280;66904;59.926;30.404;2023-09-19T22:26:37;100194.56;;;24.89;53.58
77739;BME280;66904;59.926;30.404;2023-09-19T22:31:38;100202.47;;;24.91;53.50
77739;BME280;66904;59.926;30.404;2023-09-19T22:36:42;100203.53;;;24.90;53.64
77739;BME280;66904;59.926;30.404;2023-09-19T22:41:44;100197.28;;;24.89;53.91
77739;BME280;66904;59.926;30.404;2023-09-19T22:46:46;100200.22;;;24.88;53.40
77739;BME280;66904;59.926;30.404;2023-09-19T22:51:48;100210.22;;;24.87;53.90
77739;BME280;66904;59.926;30.404;2023-09-19T22:56:55;100208.94;;;24.90;53.97
77739;BME280;66904;59.926;30.404;2023-09-19T23:01:55;100213.50;;;24.89;53.42
77739;BME280;66904;59.926;30.404;2023-09-19T23:06:57;100226.88;;;24.84;53.79
77739;BME280;66904;59.926;30.404;2023-09-19T23:12:05;100235.59;;;24.86;53.76
77739;BME280;66904;59.926;30.404;2023-09-19T23:17:19;100218.56;;;24.86;53.88
77739;BME280;66904;59.926;30.404;2023-09-19T23:22:21;100241.66;;;24.88;53.71
77739;BME280;66904;59.926;30.404;2023-09-19T23:27:28;100236.44;;;24.87;53.64
77739;BME280;66904;59.926;30.404;2023-09-19T23:32:34;100241.84;;;24.87;54.25
77739;BME280;66904;59.926;30.404;2023-09-19T23:37:35;100243.72;;;24.86;54.22
77739;BME280;66904;59.926;30.404;2023-09-19T23:42:35;100251.03;;;24.86;54.17
77739;BME280;66904;59.926;30.404;2023-09-19T23:47:36;100245.81;;;24.84;53.79
77739;BME280;66904;59.926;30.404;2023-09-19T23:52:39;100240.00;;;24.81;54.04
77739;BME280;66904;59.926;30.404;2023-09-19T23:57:39;100244.81;;;24.79;54.04
